DLH796 VHHH-EDDF
Flight info
| Callsign | DLH796 |
|---|---|
| Flight time | N/A |
| Altitude | 32100 |
| Route | BEKOL A461 SHL W22 TEPID W24 OSNOV G586 QP B330 ELKAL W179 SUMUN/K0939S1040 W179 IGNAK/K0941S1010 W179 WFX/K0935S1040 W179 OMBON W195 VIDEK/K0939S1010 W195 LAXAL/K0933S1040 W195 IDOPA W197 ANDIM B215 IBANO G470 AKLAS W192 FKG A368 UGPEL/K0915S1100 A368 SARIN/K0906F360 N161 GASBI/N0495F380 N161 LEYLA T916 MATAL DCT TABAS DCT REBLO UM11 CRM UL746 ODERO DCT OPT DCT IRLOX DCT BALUX DCT TEKNO DCT ABETI DCT SUBEN DCT AKINI T161 DEBHI DEBHI1B |
| Aircraft | B78X/H-SDE1E2E3FGHIJ2J3J4J5M1RWXY/LB1D1 |
Departure
| Time | 2026-05-05 07:14 |
|---|---|
| Airport | Hong Kong International Airport (VHHH) |
Arrival
| Time | N/A |
|---|---|
| Airport | Frankfurt Main Airport (EDDF) |
| Time | Latitude | Longitude | Altitude | Speed | Heading |
|---|---|---|---|---|---|
| 2026-05-05 06:11 | 22.31473 | 113.92569 | 38 ft | 0 kts | 206° |
| 2026-05-05 06:56 | 22.31480 | 113.92573 | 36 ft | 4 kts | 206° |
| 2026-05-05 06:56 | 22.31505 | 113.92586 | 36 ft | 6 kts | 205° |
| 2026-05-05 06:57 | 22.31525 | 113.92596 | 34 ft | 6 kts | 208° |
| 2026-05-05 06:57 | 22.31545 | 113.92613 | 34 ft | 6 kts | 242° |
| 2026-05-05 06:57 | 22.31555 | 113.92640 | 35 ft | 6 kts | 250° |
| 2026-05-05 06:57 | 22.31556 | 113.92644 | 35 ft | 0 kts | 249° |
| 2026-05-05 07:03 | 22.31556 | 113.92642 | 38 ft | 0 kts | 255° |
| 2026-05-05 07:03 | 22.31557 | 113.92635 | 38 ft | 2 kts | 270° |
| 2026-05-05 07:03 | 22.31563 | 113.92606 | 38 ft | 6 kts | 283° |
| 2026-05-05 07:03 | 22.31585 | 113.92551 | 38 ft | 10 kts | 296° |
| 2026-05-05 07:04 | 22.31613 | 113.92488 | 38 ft | 8 kts | 296° |
| 2026-05-05 07:04 | 22.31642 | 113.92454 | 38 ft | 6 kts | 329° |
| 2026-05-05 07:04 | 22.31679 | 113.92438 | 38 ft | 6 kts | 339° |
| 2026-05-05 07:04 | 22.31717 | 113.92425 | 38 ft | 5 kts | 342° |
| 2026-05-05 07:05 | 22.31732 | 113.92403 | 38 ft | 3 kts | 295° |
| 2026-05-05 07:05 | 22.31734 | 113.92378 | 38 ft | 4 kts | 272° |
| 2026-05-05 07:05 | 22.31727 | 113.92341 | 38 ft | 6 kts | 253° |
| 2026-05-05 07:05 | 22.31708 | 113.92281 | 38 ft | 10 kts | 251° |
| 2026-05-05 07:06 | 22.31681 | 113.92195 | 38 ft | 14 kts | 251° |
| 2026-05-05 07:06 | 22.31646 | 113.92084 | 38 ft | 17 kts | 251° |
| 2026-05-05 07:06 | 22.31605 | 113.91957 | 38 ft | 17 kts | 250° |
| 2026-05-05 07:06 | 22.31564 | 113.91838 | 38 ft | 16 kts | 250° |
| 2026-05-05 07:07 | 22.31525 | 113.91725 | 59 ft | 16 kts | 251° |
| 2026-05-05 07:07 | 22.31493 | 113.91615 | 38 ft | 16 kts | 252° |
| 2026-05-05 07:07 | 22.31454 | 113.91493 | 38 ft | 18 kts | 251° |
| 2026-05-05 07:07 | 22.31411 | 113.91362 | 38 ft | 18 kts | 250° |
| 2026-05-05 07:08 | 22.31372 | 113.91237 | 38 ft | 17 kts | 251° |
| 2026-05-05 07:08 | 22.31334 | 113.91118 | 38 ft | 16 kts | 250° |
| 2026-05-05 07:08 | 22.31298 | 113.91009 | 38 ft | 15 kts | 251° |
| 2026-05-05 07:08 | 22.31264 | 113.90904 | 38 ft | 14 kts | 251° |
| 2026-05-05 07:09 | 22.31232 | 113.90804 | 38 ft | 14 kts | 251° |
| 2026-05-05 07:09 | 22.31197 | 113.90696 | 38 ft | 16 kts | 251° |
| 2026-05-05 07:09 | 22.31158 | 113.90575 | 37 ft | 17 kts | 251° |
| 2026-05-05 07:09 | 22.31120 | 113.90456 | 37 ft | 16 kts | 251° |
| 2026-05-05 07:10 | 22.31085 | 113.90346 | 38 ft | 15 kts | 251° |
| 2026-05-05 07:10 | 22.31052 | 113.90244 | 38 ft | 15 kts | 251° |
| 2026-05-05 07:10 | 22.31019 | 113.90140 | 38 ft | 15 kts | 251° |
| 2026-05-05 07:10 | 22.30985 | 113.90036 | 38 ft | 15 kts | 250° |
| 2026-05-05 07:11 | 22.30952 | 113.89936 | 38 ft | 12 kts | 250° |
| 2026-05-05 07:11 | 22.30933 | 113.89875 | 38 ft | 6 kts | 251° |
| 2026-05-05 07:11 | 22.30926 | 113.89835 | 38 ft | 4 kts | 278° |
| 2026-05-05 07:11 | 22.30941 | 113.89820 | 38 ft | 2 kts | 324° |
| 2026-05-05 07:12 | 22.30958 | 113.89812 | 38 ft | 3 kts | 335° |
| 2026-05-05 07:12 | 22.30988 | 113.89797 | 36 ft | 7 kts | 336° |
| 2026-05-05 07:12 | 22.31043 | 113.89773 | 35 ft | 6 kts | 344° |
| 2026-05-05 07:12 | 22.31078 | 113.89776 | 35 ft | 4 kts | 25° |
| 2026-05-05 07:13 | 22.31087 | 113.89791 | 35 ft | 1 kts | 62° |
| 2026-05-05 07:13 | 22.31090 | 113.89801 | 35 ft | 4 kts | 69° |
| 2026-05-05 07:13 | 22.31137 | 113.89941 | 36 ft | 46 kts | 70° |
| 2026-05-05 07:13 | 22.31310 | 113.90484 | 36 ft | 105 kts | 70° |
| 2026-05-05 07:14 | 22.31606 | 113.91402 | 38 ft | 156 kts | 71° |
| 2026-05-05 07:14 | 22.32017 | 113.92660 | 94 ft | 193 kts | 73° |
| 2026-05-05 07:14 | 22.32382 | 113.94006 | 675 ft | 189 kts | 74° |
| 2026-05-05 07:14 | 22.32894 | 113.95416 | 1118 ft | 205 kts | 69° |
| 2026-05-05 07:15 | 22.33413 | 113.96864 | 1844 ft | 209 kts | 66° |
| 2026-05-05 07:15 | 22.34231 | 113.98184 | 2528 ft | 212 kts | 57° |
| 2026-05-05 07:15 | 22.35059 | 113.99504 | 3203 ft | 217 kts | 58° |
| 2026-05-05 07:15 | 22.35919 | 114.00885 | 3799 ft | 225 kts | 57° |
| 2026-05-05 07:16 | 22.36812 | 114.02305 | 4445 ft | 232 kts | 57° |
| 2026-05-05 07:16 | 22.37739 | 114.03778 | 5088 ft | 242 kts | 57° |
| 2026-05-05 07:16 | 22.38701 | 114.05309 | 5709 ft | 252 kts | 56° |
| 2026-05-05 07:16 | 22.39684 | 114.06929 | 6392 ft | 260 kts | 63° |
| 2026-05-05 07:17 | 22.40029 | 114.08819 | 6966 ft | 264 kts | 97° |
| 2026-05-05 07:17 | 22.39518 | 114.10754 | 7506 ft | 274 kts | 117° |
| 2026-05-05 07:17 | 22.38705 | 114.12690 | 8060 ft | 288 kts | 117° |
| 2026-05-05 07:17 | 22.37872 | 114.14699 | 8808 ft | 296 kts | 116° |
| 2026-05-05 07:18 | 22.37041 | 114.16772 | 9603 ft | 303 kts | 116° |
| 2026-05-05 07:18 | 22.36207 | 114.18862 | 10290 ft | 311 kts | 116° |
| 2026-05-05 07:18 | 22.35322 | 114.21052 | 10790 ft | 325 kts | 116° |
| 2026-05-05 07:18 | 22.34388 | 114.23359 | 11243 ft | 342 kts | 115° |
| 2026-05-05 07:19 | 22.33811 | 114.25889 | 11654 ft | 363 kts | 92° |
| 2026-05-05 07:19 | 22.34218 | 114.28658 | 12060 ft | 384 kts | 69° |
| 2026-05-05 07:19 | 22.35551 | 114.31218 | 12627 ft | 397 kts | 51° |
| 2026-05-05 07:19 | 22.37542 | 114.33256 | 13399 ft | 403 kts | 31° |
| 2026-05-05 07:20 | 22.40086 | 114.34530 | 14091 ft | 405 kts | 11° |
| 2026-05-05 07:20 | 22.42865 | 114.34884 | 14729 ft | 403 kts | 353° |
| 2026-05-05 07:20 | 22.45590 | 114.34308 | 15383 ft | 398 kts | 334° |
| 2026-05-05 07:20 | 22.48050 | 114.32932 | 15908 ft | 399 kts | 321° |
| 2026-05-05 07:21 | 22.50189 | 114.31061 | 15999 ft | 391 kts | 309° |
| 2026-05-05 07:21 | 22.51746 | 114.28688 | 16015 ft | 385 kts | 294° |
| 2026-05-05 07:21 | 22.52764 | 114.26054 | 16017 ft | 380 kts | 284° |
| 2026-05-05 07:21 | 22.53302 | 114.23260 | 16010 ft | 378 kts | 275° |
| 2026-05-05 07:22 | 22.53580 | 114.20422 | 16002 ft | 378 kts | 277° |
| 2026-05-05 07:22 | 22.54289 | 114.17667 | 16003 ft | 382 kts | 288° |
| 2026-05-05 07:22 | 22.55505 | 114.15089 | 16006 ft | 386 kts | 300° |
| 2026-05-05 07:22 | 22.57175 | 114.12838 | 16018 ft | 391 kts | 311° |
| 2026-05-05 07:23 | 22.59296 | 114.10957 | 16171 ft | 397 kts | 323° |
| 2026-05-05 07:23 | 22.61773 | 114.09533 | 16774 ft | 405 kts | 330° |
| 2026-05-05 07:23 | 22.64304 | 114.08207 | 17468 ft | 409 kts | 329° |
| 2026-05-05 07:23 | 22.66888 | 114.06873 | 18162 ft | 414 kts | 330° |
| 2026-05-05 07:24 | 22.69531 | 114.05527 | 18761 ft | 417 kts | 329° |
| 2026-05-05 07:24 | 22.72141 | 114.04190 | 19339 ft | 420 kts | 329° |
| 2026-05-05 07:24 | 22.74782 | 114.02825 | 19920 ft | 423 kts | 329° |
| 2026-05-05 07:24 | 22.77447 | 114.01449 | 20475 ft | 426 kts | 329° |
| 2026-05-05 07:25 | 22.80154 | 114.00057 | 21066 ft | 428 kts | 329° |
| 2026-05-05 07:25 | 22.82829 | 113.98681 | 21633 ft | 430 kts | 329° |
| 2026-05-05 07:25 | 22.85543 | 113.97281 | 22174 ft | 433 kts | 329° |
| 2026-05-05 07:25 | 22.88265 | 113.95875 | 22712 ft | 435 kts | 329° |
| 2026-05-05 07:26 | 22.91006 | 113.94461 | 23228 ft | 437 kts | 329° |
| 2026-05-05 07:26 | 22.93780 | 113.93018 | 23730 ft | 440 kts | 329° |
| 2026-05-05 07:26 | 22.96509 | 113.91592 | 24141 ft | 442 kts | 329° |
| 2026-05-05 07:26 | 22.99293 | 113.90142 | 24542 ft | 444 kts | 329° |
| 2026-05-05 07:27 | 23.02103 | 113.88682 | 24970 ft | 447 kts | 329° |
| 2026-05-05 07:27 | 23.04908 | 113.87222 | 25367 ft | 449 kts | 329° |
| 2026-05-05 07:27 | 23.07712 | 113.85691 | 25762 ft | 447 kts | 324° |
| 2026-05-05 07:27 | 23.10228 | 113.83789 | 26165 ft | 443 kts | 315° |
| 2026-05-05 07:28 | 23.12496 | 113.81518 | 26578 ft | 442 kts | 312° |
| 2026-05-05 07:28 | 23.14725 | 113.79200 | 26979 ft | 444 kts | 311° |
| 2026-05-05 07:28 | 23.16935 | 113.76890 | 27359 ft | 446 kts | 311° |
| 2026-05-05 07:28 | 23.19188 | 113.74528 | 27748 ft | 448 kts | 311° |
| 2026-05-05 07:29 | 23.21442 | 113.72168 | 28122 ft | 450 kts | 311° |
| 2026-05-05 07:29 | 23.23680 | 113.69829 | 28482 ft | 452 kts | 311° |
| 2026-05-05 07:29 | 23.25956 | 113.67446 | 28845 ft | 454 kts | 311° |
| 2026-05-05 07:29 | 23.28239 | 113.65052 | 29204 ft | 455 kts | 311° |
| 2026-05-05 07:30 | 23.30533 | 113.62647 | 29552 ft | 457 kts | 311° |
| 2026-05-05 07:30 | 23.35108 | 113.57848 | 30194 ft | 461 kts | 311° |
| 2026-05-05 07:30 | 23.37429 | 113.55410 | 30473 ft | 462 kts | 311° |
| 2026-05-05 07:31 | 23.39751 | 113.52971 | 30896 ft | 460 kts | 311° |
| 2026-05-05 07:31 | 23.42024 | 113.50585 | 31275 ft | 459 kts | 311° |
| 2026-05-05 07:31 | 23.44327 | 113.48162 | 31663 ft | 458 kts | 311° |
| 2026-05-05 07:31 | 23.46621 | 113.45747 | 31970 ft | 457 kts | 311° |
| 2026-05-05 07:32 | 23.51159 | 113.40971 | 31985 ft | 449 kts | 311° |
| 2026-05-05 07:32 | 23.55609 | 113.36260 | 31989 ft | 448 kts | 310° |
| 2026-05-05 07:33 | 23.60049 | 113.31453 | 31993 ft | 458 kts | 310° |
| 2026-05-05 07:33 | 23.64614 | 113.26509 | 32008 ft | 459 kts | 307° |
| 2026-05-05 07:34 | 23.68171 | 113.20855 | 32024 ft | 452 kts | 294° |
| 2026-05-05 07:34 | 23.70790 | 113.14615 | 32002 ft | 451 kts | 292° |
| 2026-05-05 07:35 | 23.73366 | 113.08399 | 32003 ft | 450 kts | 293° |
| 2026-05-05 07:35 | 23.76067 | 113.03626 | 32006 ft | 457 kts | 304° |
| 2026-05-05 07:36 | 23.81487 | 112.98052 | 32018 ft | 467 kts | 320° |
| 2026-05-05 07:36 | 23.86359 | 112.95241 | 32002 ft | 479 kts | 333° |
| 2026-05-05 07:37 | 23.92719 | 112.93045 | 31995 ft | 481 kts | 336° |
| 2026-05-05 07:37 | 23.99100 | 112.90928 | 31993 ft | 481 kts | 336° |
| 2026-05-05 07:38 | 24.05523 | 112.88789 | 31991 ft | 480 kts | 336° |
| 2026-05-05 07:38 | 24.11906 | 112.86662 | 31985 ft | 481 kts | 336° |
| 2026-05-05 07:39 | 24.18292 | 112.84534 | 31973 ft | 480 kts | 337° |
| 2026-05-05 07:39 | 24.24686 | 112.82412 | 31973 ft | 481 kts | 337° |
| 2026-05-05 07:40 | 24.31071 | 112.80285 | 31978 ft | 482 kts | 337° |
| 2026-05-05 07:40 | 24.37399 | 112.77898 | 31967 ft | 474 kts | 328° |
| 2026-05-05 07:41 | 24.42832 | 112.73991 | 31987 ft | 463 kts | 314° |
| 2026-05-05 07:41 | 24.47012 | 112.68691 | 31972 ft | 456 kts | 300° |
| 2026-05-05 07:42 | 24.49700 | 112.62428 | 31972 ft | 454 kts | 286° |
| 2026-05-05 07:42 | 24.50818 | 112.55665 | 31968 ft | 455 kts | 277° |
| 2026-05-05 07:43 | 24.51507 | 112.48738 | 31966 ft | 455 kts | 276° |
| 2026-05-05 07:43 | 24.52163 | 112.41861 | 31947 ft | 455 kts | 277° |
| 2026-05-05 07:44 | 24.52837 | 112.34910 | 31956 ft | 456 kts | 277° |
| 2026-05-05 07:44 | 24.53493 | 112.28026 | 31951 ft | 455 kts | 277° |
| 2026-05-05 07:45 | 24.54155 | 112.21096 | 31954 ft | 454 kts | 277° |
| 2026-05-05 07:45 | 24.54808 | 112.14208 | 31952 ft | 456 kts | 277° |
| 2026-05-05 07:46 | 24.55465 | 112.07246 | 31955 ft | 458 kts | 277° |
| 2026-05-05 07:46 | 24.56116 | 112.00317 | 31951 ft | 455 kts | 277° |
| 2026-05-05 07:47 | 24.56764 | 111.93383 | 31949 ft | 457 kts | 276° |
| 2026-05-05 07:47 | 24.57406 | 111.86473 | 31949 ft | 456 kts | 277° |
| 2026-05-05 07:48 | 24.58048 | 111.79537 | 31942 ft | 456 kts | 277° |
| 2026-05-05 07:48 | 24.58687 | 111.72589 | 31947 ft | 455 kts | 277° |
| 2026-05-05 07:49 | 24.59319 | 111.65692 | 31951 ft | 457 kts | 277° |
| 2026-05-05 07:49 | 24.59953 | 111.58733 | 31952 ft | 457 kts | 276° |
| 2026-05-05 07:50 | 24.60582 | 111.51794 | 31942 ft | 457 kts | 276° |
| 2026-05-05 07:50 | 24.61210 | 111.44827 | 31950 ft | 456 kts | 277° |
| 2026-05-05 07:51 | 24.61829 | 111.37926 | 31941 ft | 456 kts | 276° |
| 2026-05-05 07:51 | 24.62448 | 111.30982 | 31945 ft | 457 kts | 276° |
| 2026-05-05 07:52 | 24.63054 | 111.24052 | 31949 ft | 457 kts | 276° |
| 2026-05-05 07:52 | 24.63651 | 111.17120 | 31942 ft | 456 kts | 276° |
| 2026-05-05 07:53 | 24.64251 | 111.10160 | 31926 ft | 457 kts | 276° |
| 2026-05-05 07:53 | 24.64842 | 111.03234 | 31928 ft | 455 kts | 276° |
| 2026-05-05 07:54 | 24.65432 | 110.96306 | 31940 ft | 457 kts | 276° |
| 2026-05-05 07:54 | 24.66022 | 110.89321 | 31930 ft | 458 kts | 276° |
| 2026-05-05 07:55 | 24.67030 | 110.82448 | 31940 ft | 456 kts | 287° |
| 2026-05-05 07:55 | 24.69612 | 110.76079 | 31943 ft | 460 kts | 300° |
| 2026-05-05 07:56 | 24.73678 | 110.70660 | 31931 ft | 464 kts | 313° |
| 2026-05-05 07:56 | 24.78320 | 110.65754 | 31952 ft | 464 kts | 313° |
| 2026-05-05 07:57 | 24.82998 | 110.60837 | 31926 ft | 466 kts | 313° |
| 2026-05-05 07:57 | 24.87679 | 110.55894 | 31924 ft | 464 kts | 313° |
| 2026-05-05 07:58 | 24.92314 | 110.51003 | 31933 ft | 464 kts | 313° |
| 2026-05-05 07:58 | 24.96988 | 110.46060 | 31917 ft | 463 kts | 313° |
| 2026-05-05 07:59 | 25.01647 | 110.41129 | 31920 ft | 465 kts | 313° |
| 2026-05-05 07:59 | 25.06299 | 110.36220 | 31921 ft | 465 kts | 313° |
| 2026-05-05 08:00 | 25.10977 | 110.31276 | 31918 ft | 465 kts | 313° |
| 2026-05-05 08:00 | 25.15636 | 110.26346 | 31915 ft | 465 kts | 313° |
| 2026-05-05 08:01 | 25.20324 | 110.21385 | 31919 ft | 465 kts | 313° |
| 2026-05-05 08:01 | 25.25004 | 110.16478 | 31919 ft | 465 kts | 313° |
| 2026-05-05 08:02 | 25.29685 | 110.11584 | 31913 ft | 465 kts | 313° |
| 2026-05-05 08:02 | 25.34390 | 110.06643 | 31917 ft | 466 kts | 313° |
| 2026-05-05 08:03 | 25.39108 | 110.01695 | 31914 ft | 466 kts | 313° |
| 2026-05-05 08:03 | 25.43787 | 109.96775 | 31912 ft | 464 kts | 313° |
| 2026-05-05 08:04 | 25.48451 | 109.91868 | 31917 ft | 465 kts | 313° |
| 2026-05-05 08:04 | 25.53135 | 109.86934 | 31916 ft | 465 kts | 313° |
| 2026-05-05 08:05 | 25.57804 | 109.82012 | 31915 ft | 464 kts | 313° |
| 2026-05-05 08:05 | 25.62494 | 109.77059 | 31900 ft | 465 kts | 313° |
| 2026-05-05 08:06 | 25.67148 | 109.72141 | 31906 ft | 465 kts | 313° |
| 2026-05-05 08:06 | 25.71843 | 109.67172 | 31912 ft | 466 kts | 313° |
| 2026-05-05 08:07 | 25.76174 | 109.61905 | 31916 ft | 462 kts | 302° |
| 2026-05-05 08:07 | 25.79071 | 109.55570 | 31912 ft | 461 kts | 288° |
| 2026-05-05 08:08 | 25.80895 | 109.48794 | 31916 ft | 460 kts | 287° |
| 2026-05-05 08:08 | 25.82697 | 109.41932 | 31913 ft | 462 kts | 287° |
| 2026-05-05 08:09 | 25.84487 | 109.35123 | 31916 ft | 462 kts | 287° |
| 2026-05-05 08:09 | 25.86282 | 109.28281 | 31919 ft | 462 kts | 287° |
| 2026-05-05 08:10 | 25.88072 | 109.21437 | 31916 ft | 460 kts | 287° |
| 2026-05-05 08:10 | 25.89857 | 109.14605 | 31918 ft | 461 kts | 287° |
| 2026-05-05 08:11 | 25.91642 | 109.07752 | 31914 ft | 464 kts | 287° |
| 2026-05-05 08:11 | 25.93444 | 109.00869 | 31915 ft | 463 kts | 287° |
| 2026-05-05 08:12 | 25.95281 | 108.94029 | 31918 ft | 464 kts | 287° |
| 2026-05-05 08:12 | 25.97095 | 108.87163 | 31920 ft | 464 kts | 287° |
| 2026-05-05 08:13 | 25.98921 | 108.80286 | 31918 ft | 463 kts | 287° |
| 2026-05-05 08:13 | 26.00731 | 108.73429 | 31915 ft | 465 kts | 287° |
| 2026-05-05 08:14 | 26.02565 | 108.66530 | 31926 ft | 465 kts | 287° |
| 2026-05-05 08:14 | 26.04393 | 108.59657 | 31925 ft | 464 kts | 287° |
| 2026-05-05 08:15 | 26.06214 | 108.52787 | 31926 ft | 462 kts | 287° |
| 2026-05-05 08:15 | 26.08027 | 108.45938 | 31929 ft | 464 kts | 287° |
| 2026-05-05 08:16 | 26.09973 | 108.39106 | 31934 ft | 463 kts | 294° |
| 2026-05-05 08:16 | 26.12742 | 108.32629 | 31937 ft | 463 kts | 295° |
| 2026-05-05 08:17 | 26.15550 | 108.26149 | 31938 ft | 462 kts | 295° |
| 2026-05-05 08:17 | 26.18339 | 108.19695 | 31937 ft | 465 kts | 295° |
| 2026-05-05 08:18 | 26.21141 | 108.13203 | 31944 ft | 464 kts | 295° |
| 2026-05-05 08:18 | 26.23922 | 108.06751 | 31940 ft | 463 kts | 295° |
| 2026-05-05 08:19 | 26.26701 | 108.00291 | 31936 ft | 463 kts | 295° |
| 2026-05-05 08:19 | 26.29486 | 107.93809 | 31947 ft | 464 kts | 295° |
| 2026-05-05 08:20 | 26.32262 | 107.87340 | 31947 ft | 464 kts | 295° |
| 2026-05-05 08:20 | 26.35056 | 107.80817 | 31939 ft | 464 kts | 295° |
| 2026-05-05 08:21 | 26.37833 | 107.74322 | 31927 ft | 464 kts | 295° |
| 2026-05-05 08:21 | 26.40606 | 107.67829 | 31925 ft | 464 kts | 295° |
| 2026-05-05 08:22 | 26.43369 | 107.61349 | 31937 ft | 465 kts | 295° |
| 2026-05-05 08:22 | 26.46141 | 107.54836 | 31944 ft | 465 kts | 295° |
| 2026-05-05 08:23 | 26.48911 | 107.48319 | 31944 ft | 464 kts | 295° |
| 2026-05-05 08:23 | 26.51672 | 107.41795 | 31946 ft | 464 kts | 295° |
| 2026-05-05 08:24 | 26.54433 | 107.35267 | 31934 ft | 466 kts | 296° |
| 2026-05-05 08:24 | 26.57203 | 107.28725 | 31942 ft | 467 kts | 296° |
| 2026-05-05 08:25 | 26.59980 | 107.22159 | 31937 ft | 466 kts | 295° |
| 2026-05-05 08:25 | 26.62742 | 107.15618 | 31942 ft | 465 kts | 296° |
| 2026-05-05 08:26 | 26.65516 | 107.09075 | 31940 ft | 466 kts | 296° |
| 2026-05-05 08:26 | 26.68292 | 107.02555 | 31938 ft | 466 kts | 296° |
| 2026-05-05 08:27 | 26.71080 | 106.95973 | 31939 ft | 467 kts | 296° |
| 2026-05-05 08:27 | 26.73850 | 106.89434 | 31933 ft | 468 kts | 296° |
| 2026-05-05 08:28 | 26.76641 | 106.82830 | 31954 ft | 468 kts | 296° |
| 2026-05-05 08:28 | 26.80202 | 106.76802 | 31946 ft | 468 kts | 311° |
| 2026-05-05 08:29 | 26.84994 | 106.71844 | 31933 ft | 470 kts | 317° |
| 2026-05-05 08:30 | 26.91533 | 106.65445 | 31923 ft | 470 kts | 317° |
| 2026-05-05 08:30 | 26.96449 | 106.60620 | 31900 ft | 470 kts | 317° |
| 2026-05-05 08:31 | 27.01369 | 106.55791 | 31902 ft | 469 kts | 317° |
| 2026-05-05 08:31 | 27.06284 | 106.50960 | 31907 ft | 470 kts | 317° |
| 2026-05-05 08:32 | 27.11204 | 106.46119 | 31882 ft | 471 kts | 317° |
| 2026-05-05 08:32 | 27.16129 | 106.41266 | 31884 ft | 471 kts | 317° |
| 2026-05-05 08:33 | 27.21043 | 106.36420 | 31882 ft | 471 kts | 317° |
| 2026-05-05 08:33 | 27.26018 | 106.31603 | 31868 ft | 472 kts | 318° |
| 2026-05-05 08:34 | 27.30987 | 106.26757 | 32055 ft | 472 kts | 317° |
| 2026-05-05 08:34 | 27.33464 | 106.24339 | 32454 ft | 470 kts | 318° |
| 2026-05-05 08:34 | 27.35930 | 106.21940 | 32844 ft | 469 kts | 318° |
| 2026-05-05 08:34 | 27.38363 | 106.19569 | 33211 ft | 468 kts | 318° |
| 2026-05-05 08:35 | 27.40845 | 106.17142 | 33629 ft | 466 kts | 318° |
| 2026-05-05 08:35 | 27.43257 | 106.14785 | 33846 ft | 464 kts | 318° |
| 2026-05-05 08:35 | 27.45680 | 106.12418 | 33835 ft | 458 kts | 318° |
| 2026-05-05 08:36 | 27.50482 | 106.07719 | 33819 ft | 457 kts | 318° |
| 2026-05-05 08:36 | 27.55288 | 106.03011 | 33816 ft | 457 kts | 318° |
| 2026-05-05 08:37 | 27.60080 | 105.98311 | 33812 ft | 457 kts | 318° |
| 2026-05-05 08:37 | 27.64900 | 105.93577 | 33800 ft | 459 kts | 318° |
| 2026-05-05 08:38 | 27.69668 | 105.88803 | 33801 ft | 457 kts | 313° |
| 2026-05-05 08:38 | 27.73430 | 105.83014 | 33828 ft | 459 kts | 298° |
| 2026-05-05 08:39 | 27.75699 | 105.76298 | 33769 ft | 461 kts | 290° |
| 2026-05-05 08:39 | 27.77647 | 105.69384 | 33769 ft | 463 kts | 290° |
| 2026-05-05 08:40 | 27.79569 | 105.62461 | 33742 ft | 463 kts | 291° |
| 2026-05-05 08:40 | 27.82052 | 105.55781 | 33754 ft | 462 kts | 295° |
| 2026-05-05 08:41 | 27.84629 | 105.49106 | 33733 ft | 462 kts | 295° |
| 2026-05-05 08:41 | 27.87202 | 105.42457 | 33733 ft | 462 kts | 295° |
| 2026-05-05 08:42 | 27.89923 | 105.35890 | 33730 ft | 461 kts | 298° |
| 2026-05-05 08:42 | 27.92788 | 105.29454 | 33699 ft | 461 kts | 298° |
| 2026-05-05 08:43 | 27.95676 | 105.22978 | 33694 ft | 461 kts | 299° |
| 2026-05-05 08:43 | 27.99449 | 105.17151 | 33702 ft | 461 kts | 315° |
| 2026-05-05 08:44 | 28.04550 | 105.12746 | 33692 ft | 464 kts | 326° |
| 2026-05-05 08:44 | 28.10025 | 105.08911 | 33687 ft | 462 kts | 326° |
| 2026-05-05 08:45 | 28.15492 | 105.05099 | 33691 ft | 459 kts | 326° |
| 2026-05-05 08:45 | 28.20960 | 105.01266 | 33687 ft | 460 kts | 326° |
| 2026-05-05 08:46 | 28.26297 | 104.97529 | 33681 ft | 463 kts | 327° |
| 2026-05-05 08:46 | 28.31815 | 104.93657 | 33694 ft | 462 kts | 326° |
| 2026-05-05 08:47 | 28.37295 | 104.89807 | 33679 ft | 468 kts | 326° |
| 2026-05-05 08:47 | 28.42819 | 104.85937 | 33703 ft | 465 kts | 326° |
| 2026-05-05 08:48 | 28.48324 | 104.82098 | 33683 ft | 462 kts | 326° |
| 2026-05-05 08:48 | 28.53814 | 104.78250 | 33682 ft | 463 kts | 326° |
| 2026-05-05 08:49 | 28.59283 | 104.74421 | 33693 ft | 463 kts | 326° |
| 2026-05-05 08:49 | 28.64783 | 104.70560 | 33691 ft | 464 kts | 326° |
| 2026-05-05 08:50 | 28.70276 | 104.66703 | 33692 ft | 464 kts | 326° |
| 2026-05-05 08:50 | 28.75766 | 104.62840 | 33692 ft | 464 kts | 326° |
| 2026-05-05 08:51 | 28.81234 | 104.58990 | 33691 ft | 463 kts | 326° |
| 2026-05-05 08:51 | 28.86691 | 104.55140 | 33691 ft | 463 kts | 326° |
| 2026-05-05 08:52 | 28.92161 | 104.51237 | 33698 ft | 464 kts | 326° |
| 2026-05-05 08:52 | 28.97645 | 104.47335 | 33706 ft | 464 kts | 326° |
| 2026-05-05 08:53 | 29.03131 | 104.43420 | 33706 ft | 465 kts | 326° |
| 2026-05-05 08:53 | 29.08624 | 104.39497 | 33711 ft | 465 kts | 326° |
| 2026-05-05 08:54 | 29.14076 | 104.35599 | 33713 ft | 464 kts | 326° |
| 2026-05-05 08:54 | 29.19547 | 104.31680 | 33711 ft | 464 kts | 326° |
| 2026-05-05 08:55 | 29.25353 | 104.28431 | 33731 ft | 469 kts | 340° |
| 2026-05-05 08:55 | 29.31842 | 104.27268 | 33738 ft | 478 kts | 357° |
| 2026-05-05 08:56 | 29.38505 | 104.28105 | 33728 ft | 484 kts | 4° |
| 2026-05-05 08:56 | 29.45168 | 104.29242 | 33736 ft | 483 kts | 4° |
| 2026-05-05 08:57 | 29.51775 | 104.30363 | 33737 ft | 483 kts | 4° |
| 2026-05-05 08:57 | 29.58444 | 104.31497 | 33742 ft | 484 kts | 4° |
| 2026-05-05 08:58 | 29.65117 | 104.32636 | 33742 ft | 484 kts | 4° |
| 2026-05-05 08:58 | 29.71783 | 104.33770 | 33740 ft | 485 kts | 4° |
| 2026-05-05 08:59 | 29.78460 | 104.34912 | 33743 ft | 485 kts | 4° |
| 2026-05-05 08:59 | 29.85139 | 104.36054 | 33747 ft | 485 kts | 4° |
| 2026-05-05 09:00 | 29.91819 | 104.37199 | 33743 ft | 484 kts | 4° |
| 2026-05-05 09:00 | 29.98472 | 104.38340 | 33743 ft | 483 kts | 4° |
| 2026-05-05 09:01 | 30.05080 | 104.39474 | 33743 ft | 484 kts | 4° |
| 2026-05-05 09:01 | 30.11744 | 104.40621 | 33747 ft | 484 kts | 4° |
| 2026-05-05 09:02 | 30.18417 | 104.41775 | 33752 ft | 485 kts | 4° |
| 2026-05-05 09:02 | 30.25073 | 104.42940 | 33751 ft | 483 kts | 4° |
| 2026-05-05 09:03 | 30.31697 | 104.44092 | 33752 ft | 484 kts | 4° |
| 2026-05-05 09:03 | 30.38313 | 104.45250 | 33753 ft | 484 kts | 4° |